Time,TemperatureF,DewpointF,PressureIn,WindDirection,WindDirectionDegrees,WindSpeedMPH,WindSpeedGustMPH,Humidity,HourlyPrecipIn,Conditions,Clouds,dailyrainin,SoftwareType,DateUTC
2013-02-02 00:00:00,38.1,35.2,29.29,SE,125,0.0,1.0,89,0.00,-RA,,0.00,WeatherDisplay:10.37,2013-02-01 23:00:00,
2013-02-02 00:20:00,38.1,35.2,29.28,SE,133,0.0,1.0,89,0.00,-RA,,0.00,WeatherDisplay:10.37,2013-02-01 23:20:00,
2013-02-02 00:30:00,38.3,35.1,29.28,SE,135,0.0,0.0,88,0.00,-RA,,0.00,WeatherDisplay:10.37,2013-02-01 23:30:00,
2013-02-02 00:40:00,38.1,34.9,29.28,SE,124,0.0,0.0,88,0.02,-RA,,0.02,WeatherDisplay:10.37,2013-02-01 23:40:00,
2013-02-02 00:50:00,38.1,34.9,29.27,ESE,112,0.0,0.0,88,0.00,-RA,,0.02,WeatherDisplay:10.37,2013-02-01 23:50:00,
2013-02-02 01:00:00,38.1,34.9,29.27,SE,135,1.0,1.0,88,0.00,SCT,,0.02,WeatherDisplay:10.37,2013-02-02 00:00:00,
2013-02-02 01:20:00,38.1,34.9,29.25,SE,131,0.0,2.0,88,0.00,SCT,,0.02,WeatherDisplay:10.37,2013-02-02 00:20:00,
2013-02-02 01:30:00,38.1,34.9,29.25,SE,135,0.0,0.0,88,0.00,BKN,,0.02,WeatherDisplay:10.37,2013-02-02 00:30:00,
2013-02-02 01:40:00,37.9,35.0,29.25,SE,135,0.0,0.0,89,0.00,BKN,,0.02,WeatherDisplay:10.37,2013-02-02 00:40:00,
2013-02-02 01:50:00,37.9,35.0,29.25,SSW,213,0.0,0.0,89,0.00,BKN,,0.02,WeatherDisplay:10.37,2013-02-02 00:50:00,
2013-02-02 02:01:00,37.8,34.8,29.25,SW,232,0.0,1.0,89,0.00,BKN,,0.02,WeatherDisplay:10.37,2013-02-02 01:01:00,
2013-02-02 02:10:00,37.8,34.8,29.24,WSW,247,0.0,0.0,89,0.00,BKN,,0.02,WeatherDisplay:10.37,2013-02-02 01:10:00,
2013-02-02 02:20:00,37.8,35.1,29.24,WNW,292,0.0,0.0,90,0.00,BKN,,0.02,WeatherDisplay:10.37,2013-02-02 01:20:00,
2013-02-02 02:30:00,37.6,34.9,29.24,WNW,292,0.0,0.0,90,0.00,OVC,,0.02,WeatherDisplay:10.37,2013-02-02 01:30:00,
2013-02-02 02:41:00,37.6,34.9,29.24,WNW,292,0.0,0.0,90,0.00,OVC,,0.02,WeatherDisplay:10.37,2013-02-02 01:41:00,
2013-02-02 02:50:00,37.2,34.6,29.24,WNW,292,0.0,1.0,90,0.00,OVC,,0.02,WeatherDisplay:10.37,2013-02-02 01:50:00,
2013-02-02 03:00:00,37.2,34.6,29.24,WNW,292,0.0,0.0,90,0.00,-RA,,0.02,WeatherDisplay:10.37,2013-02-02 02:00:00,
2013-02-02 03:11:00,37.0,34.4,29.23,WNW,292,0.0,0.0,90,0.02,-RA,,0.04,WeatherDisplay:10.37,2013-02-02 02:11:00,
2013-02-02 03:20:00,37.0,34.4,29.23,WNW,292,0.0,0.0,90,0.00,-RA,,0.04,WeatherDisplay:10.37,2013-02-02 02:20:00,
2013-02-02 03:30:00,37.0,34.4,29.22,WNW,292,0.0,0.0,90,0.00,BKN,,0.04,WeatherDisplay:10.37,2013-02-02 02:30:00,
2013-02-02 03:40:00,37.0,34.7,29.22,WNW,292,0.0,0.0,91,0.00,BKN,,0.04,WeatherDisplay:10.37,2013-02-02 02:40:00,
2013-02-02 03:50:00,36.9,34.5,29.22,WNW,292,0.0,0.0,91,0.00,BKN,,0.04,WeatherDisplay:10.37,2013-02-02 02:50:00,
2013-02-02 04:00:00,36.7,34.3,29.22,WNW,292,0.0,0.0,91,0.00,-RA,,0.04,WeatherDisplay:10.37,2013-02-02 03:00:00,
2013-02-02 04:10:00,36.7,34.3,29.22,WNW,292,0.0,0.0,91,0.00,-RA,,0.04,WeatherDisplay:10.37,2013-02-02 03:10:00,
2013-02-02 04:20:00,36.7,34.3,29.22,WNW,292,0.0,0.0,91,0.00,-RA,,0.04,WeatherDisplay:10.37,2013-02-02 03:20:00,
2013-02-02 04:30:00,36.5,34.1,29.22,WNW,292,0.0,0.0,91,0.00,-RA,,0.04,WeatherDisplay:10.37,2013-02-02 03:30:00,
2013-02-02 04:40:00,36.5,34.1,29.22,WNW,292,0.0,0.0,91,0.00,-RA,,0.04,WeatherDisplay:10.37,2013-02-02 03:40:00,
2013-02-02 04:50:00,36.3,33.9,29.22,WNW,292,0.0,0.0,91,0.00,-RA,,0.04,WeatherDisplay:10.37,2013-02-02 03:50:00,
2013-02-02 05:01:00,36.3,33.9,29.22,WNW,292,0.0,0.0,91,0.00,-RA,,0.04,WeatherDisplay:10.37,2013-02-02 04:01:00,
2013-02-02 05:10:00,36.3,33.9,29.23,WNW,292,0.0,0.0,91,0.00,-RA,,0.04,WeatherDisplay:10.37,2013-02-02 04:10:00,
2013-02-02 05:20:00,36.3,33.9,29.22,West,281,0.0,0.0,91,0.02,-RA,,0.06,WeatherDisplay:10.37,2013-02-02 04:20:00,
2013-02-02 05:30:00,36.5,34.1,29.22,West,270,0.0,0.0,91,0.00,-RA,,0.06,WeatherDisplay:10.37,2013-02-02 04:30:00,
2013-02-02 05:40:00,36.5,34.4,29.23,West,270,0.0,0.0,92,0.00,-RA,,0.06,WeatherDisplay:10.37,2013-02-02 04:40:00,
2013-02-02 05:50:00,36.5,34.4,29.22,West,270,0.0,0.0,92,0.00,-RA,,0.06,WeatherDisplay:10.37,2013-02-02 04:50:00,
2013-02-02 06:00:00,36.5,34.4,29.22,West,281,0.0,0.0,92,0.00,OVC,,0.06,WeatherDisplay:10.37,2013-02-02 05:00:00,
2013-02-02 06:11:00,36.5,34.4,29.23,West,281,0.0,0.0,92,0.00,OVC,,0.06,WeatherDisplay:10.37,2013-02-02 05:11:00,
2013-02-02 06:20:00,36.3,34.2,29.23,West,270,0.0,0.0,92,0.00,OVC,,0.06,WeatherDisplay:10.37,2013-02-02 05:20:00,
2013-02-02 06:30:00,36.3,34.2,29.23,West,270,0.0,0.0,92,0.00,-RA,,0.06,WeatherDisplay:10.37,2013-02-02 05:30:00,
2013-02-02 06:40:00,36.3,34.2,29.23,West,270,0.0,0.0,92,0.00,-RA,,0.06,WeatherDisplay:10.37,2013-02-02 05:40:00,
2013-02-02 06:51:00,36.3,34.2,29.23,SE,126,0.0,0.0,92,0.00,-RA,,0.06,WeatherDisplay:10.37,2013-02-02 05:51:00,
2013-02-02 07:01:00,36.1,34.0,29.24,SE,135,0.0,0.0,92,0.00,-RA,,0.06,WeatherDisplay:10.37,2013-02-02 06:01:00,
2013-02-02 07:10:00,36.1,34.0,29.24,South,191,0.0,0.0,92,0.00,-RA,,0.06,WeatherDisplay:10.37,2013-02-02 06:10:00,
2013-02-02 07:21:00,36.3,34.2,29.24,WNW,292,2.0,2.0,92,0.00,BKN,,0.06,WeatherDisplay:10.37,2013-02-02 06:21:00,
2013-02-02 07:30:00,36.3,34.2,29.25,WNW,297,0.0,0.0,92,0.00,BKN,,0.06,WeatherDisplay:10.37,2013-02-02 06:30:00,
2013-02-02 07:40:00,36.5,34.4,29.26,NW,326,0.0,0.0,92,0.00,BKN,,0.06,WeatherDisplay:10.37,2013-02-02 06:40:00,
2013-02-02 07:50:00,36.7,34.6,29.26,WNW,294,0.0,4.0,92,0.00,FEW,,0.06,WeatherDisplay:10.37,2013-02-02 06:50:00,
2013-02-02 08:00:00,36.7,34.8,29.27,WNW,292,3.0,4.0,93,0.00,FEW,,0.06,WeatherDisplay:10.37,2013-02-02 07:00:00,
2013-02-02 08:20:00,36.9,34.8,29.28,WNW,298,1.0,4.0,92,0.00,FEW,,0.06,WeatherDisplay:10.37,2013-02-02 07:20:00,
2013-02-02 08:30:00,36.9,34.8,29.29,WNW,292,0.0,3.0,92,0.00,BKN,,0.06,WeatherDisplay:10.37,2013-02-02 07:30:00,
2013-02-02 08:50:00,37.0,34.7,29.31,WNW,292,2.0,10.0,91,0.00,BKN,,0.06,WeatherDisplay:10.37,2013-02-02 07:50:00,
2013-02-02 09:01:00,37.2,34.8,29.31,WNW,298,3.0,3.0,91,0.00,BKN,,0.06,WeatherDisplay:10.37,2013-02-02 08:01:00,
2013-02-02 09:20:00,37.6,34.6,29.33,WNW,292,5.0,5.0,89,0.00,BKN,,0.06,WeatherDisplay:10.37,2013-02-02 08:20:00,
2013-02-02 09:30:00,37.8,34.5,29.33,WNW,292,2.0,3.0,88,0.00,BKN,,0.06,WeatherDisplay:10.37,2013-02-02 08:30:00,
2013-02-02 09:40:00,37.9,34.1,29.34,WNW,292,3.0,3.0,86,0.00,BKN,,0.06,WeatherDisplay:10.37,2013-02-02 08:40:00,
2013-02-02 09:50:00,38.1,34.0,29.34,NW,312,1.0,5.0,85,0.00,BKN,,0.06,WeatherDisplay:10.37,2013-02-02 08:50:00,
2013-02-02 10:00:00,38.3,33.9,29.35,WNW,292,0.0,4.0,84,0.00,SCT,,0.06,WeatherDisplay:10.37,2013-02-02 09:00:00,
2013-02-02 10:11:00,38.5,32.5,29.36,West,277,8.0,13.0,79,0.00,SCT,,0.06,WeatherDisplay:10.37,2013-02-02 09:11:00,
2013-02-02 10:20:00,38.5,31.6,29.37,WNW,286,3.0,4.0,76,0.00,FEW,,0.06,WeatherDisplay:10.37,2013-02-02 09:20:00,
2013-02-02 10:31:00,38.5,31.6,29.37,NW,315,5.0,5.0,76,0.00,FEW,,0.06,WeatherDisplay:10.37,2013-02-02 09:31:00,
2013-02-02 10:40:00,38.8,31.9,29.38,NW,304,7.0,12.0,76,0.00,FEW,,0.06,WeatherDisplay:10.37,2013-02-02 09:40:00,
2013-02-02 10:50:00,38.8,31.6,29.39,NW,315,9.0,10.0,75,0.00,FEW,,0.06,WeatherDisplay:10.37,2013-02-02 09:50:00,
2013-02-02 11:00:00,38.5,31.6,29.40,NW,312,1.0,1.0,76,0.00,BKN,,0.06,WeatherDisplay:10.37,2013-02-02 10:00:00,
2013-02-02 11:11:00,38.5,31.6,29.40,NW,313,1.0,7.0,76,0.00,BKN,,0.06,WeatherDisplay:10.37,2013-02-02 10:11:00,
2013-02-02 11:20:00,38.8,30.9,29.41,West,275,2.0,2.0,73,0.00,BKN,,0.06,WeatherDisplay:10.37,2013-02-02 10:20:00,
2013-02-02 11:31:00,39.4,31.8,29.42,WNW,292,3.0,4.0,74,0.00,SCT,,0.06,WeatherDisplay:10.37,2013-02-02 10:31:00,
2013-02-02 11:40:00,39.7,31.8,29.43,WNW,292,3.0,9.0,73,0.00,SCT,,0.06,WeatherDisplay:10.37,2013-02-02 10:40:00,
2013-02-02 12:00:00,40.1,31.4,29.43,WNW,288,9.0,13.0,71,0.00,SCT,,0.06,WeatherDisplay:10.37,2013-02-02 11:00:00,
2013-02-02 12:10:00,39.9,31.3,29.44,SSW,201,5.0,7.0,71,0.00,SCT,,0.06,WeatherDisplay:10.37,2013-02-02 11:10:00,
2013-02-02 12:20:00,39.9,31.6,29.44,NW,311,6.0,6.0,72,0.00,SCT,,0.06,WeatherDisplay:10.37,2013-02-02 11:20:00,
2013-02-02 12:31:00,39.9,32.0,29.44,NW,304,3.0,5.0,73,0.00,BKN,,0.06,WeatherDisplay:10.37,2013-02-02 11:31:00,
2013-02-02 12:40:00,40.1,32.1,29.45,WNW,296,0.0,5.0,73,0.00,BKN,,0.06,WeatherDisplay:10.37,2013-02-02 11:40:00,
2013-02-02 12:51:00,40.3,32.3,29.46,WNW,292,0.0,5.0,73,0.00,SCT,,0.06,WeatherDisplay:10.37,2013-02-02 11:51:00,
2013-02-02 13:00:00,39.9,32.0,29.47,WNW,297,3.0,5.0,73,0.00,SCT,,0.06,WeatherDisplay:10.37,2013-02-02 12:00:00,
2013-02-02 13:10:00,39.7,32.1,29.47,NW,317,3.0,5.0,74,0.00,SCT,,0.06,WeatherDisplay:10.37,2013-02-02 12:10:00,
2013-02-02 13:20:00,39.7,31.8,29.48,North,355,2.0,2.0,73,0.00,SCT,,0.06,WeatherDisplay:10.37,2013-02-02 12:20:00,
2013-02-02 13:30:00,39.6,32.0,29.48,West,276,0.0,3.0,74,0.00,BKN,,0.06,WeatherDisplay:10.37,2013-02-02 12:30:00,
2013-02-02 13:41:00,39.6,32.3,29.48,WSW,254,1.0,1.0,75,0.00,BKN,,0.06,WeatherDisplay:10.37,2013-02-02 12:41:00,
2013-02-02 13:50:00,39.4,31.8,29.49,NE,44,1.0,1.0,74,0.00,BKN,,0.06,WeatherDisplay:10.37,2013-02-02 12:50:00,
2013-02-02 14:00:00,39.4,32.1,29.50,WNW,303,1.0,1.0,75,0.00,BKN,,0.06,WeatherDisplay:10.37,2013-02-02 13:00:00,
2013-02-02 14:10:00,39.0,31.1,29.50,NW,307,3.0,3.0,73,0.00,BKN,,0.06,WeatherDisplay:10.37,2013-02-02 13:10:00,
2013-02-02 14:20:00,38.8,30.6,29.50,WNW,284,0.0,5.0,72,0.00,BKN,,0.06,WeatherDisplay:10.37,2013-02-02 13:20:00,
2013-02-02 14:30:00,38.8,30.6,29.51,West,270,1.0,1.0,72,0.00,BKN,,0.06,WeatherDisplay:10.37,2013-02-02 13:30:00,
2013-02-02 14:40:00,38.5,30.2,29.51,West,275,1.0,2.0,72,0.00,BKN,,0.06,WeatherDisplay:10.37,2013-02-02 13:40:00,
2013-02-02 14:50:00,38.5,30.6,29.52,NW,313,2.0,2.0,73,0.00,BKN,,0.06,WeatherDisplay:10.37,2013-02-02 13:50:00,
2013-02-02 15:00:00,38.7,31.1,29.52,WNW,292,0.0,2.0,74,0.00,BKN,,0.06,WeatherDisplay:10.37,2013-02-02 14:00:00,
2013-02-02 15:10:00,38.8,30.6,29.53,SSW,202,0.0,0.0,72,0.00,BKN,,0.06,WeatherDisplay:10.37,2013-02-02 14:10:00,
2013-02-02 15:20:00,39.0,30.4,29.54,WNW,292,1.0,3.0,71,0.00,BKN,,0.06,WeatherDisplay:10.37,2013-02-02 14:20:00,
2013-02-02 15:30:00,39.2,30.6,29.54,West,262,0.0,2.0,71,0.00,BKN,,0.06,WeatherDisplay:10.37,2013-02-02 14:30:00,
2013-02-02 15:40:00,39.0,30.8,29.55,WNW,292,1.0,2.0,72,0.00,BKN,,0.06,WeatherDisplay:10.37,2013-02-02 14:40:00,
2013-02-02 15:50:00,38.8,30.2,29.55,WSW,249,1.0,1.0,71,0.00,BKN,,0.06,WeatherDisplay:10.37,2013-02-02 14:50:00,
2013-02-02 16:00:00,39.0,30.1,29.56,WNW,293,0.0,0.0,70,0.00,BKN,,0.06,WeatherDisplay:10.37,2013-02-02 15:00:00,
2013-02-02 16:20:00,38.5,29.9,29.57,NW,322,1.0,1.0,71,0.00,BKN,,0.06,WeatherDisplay:10.37,2013-02-02 15:20:00,
2013-02-02 16:31:00,38.3,29.7,29.57,WNW,292,0.0,0.0,71,0.00,BKN,,0.06,WeatherDisplay:10.37,2013-02-02 15:31:00,
2013-02-02 16:40:00,37.8,29.9,29.57,WNW,284,0.0,0.0,73,0.00,BKN,,0.06,WeatherDisplay:10.37,2013-02-02 15:40:00,
2013-02-02 16:50:00,37.6,29.7,29.58,West,270,0.0,0.0,73,0.00,BKN,,0.06,WeatherDisplay:10.37,2013-02-02 15:50:00,
2013-02-02 17:01:00,37.2,29.7,29.58,WNW,292,0.0,0.0,74,0.00,BKN,,0.06,WeatherDisplay:10.37,2013-02-02 16:01:00,
2013-02-02 17:10:00,37.0,29.5,29.59,WNW,292,0.0,0.0,74,0.00,BKN,,0.06,WeatherDisplay:10.37,2013-02-02 16:10:00,
2013-02-02 17:21:00,36.3,28.8,29.59,WNW,303,0.0,0.0,74,0.00,FEW,,0.06,WeatherDisplay:10.37,2013-02-02 16:21:00,
2013-02-02 17:30:00,36.3,29.2,29.60,West,270,0.0,0.0,75,0.00,FEW,,0.06,WeatherDisplay:10.37,2013-02-02 16:30:00,
2013-02-02 17:41:00,36.0,28.8,29.61,WNW,292,1.0,2.0,75,0.00,FEW,,0.06,WeatherDisplay:10.37,2013-02-02 16:41:00,
2013-02-02 17:51:00,35.8,29.0,29.62,WNW,292,1.0,1.0,76,0.00,FEW,,0.06,WeatherDisplay:10.37,2013-02-02 16:51:00,
2013-02-02 18:00:00,35.4,28.9,29.62,NW,305,0.0,2.0,77,0.00,FEW,,0.06,WeatherDisplay:10.37,2013-02-02 17:00:00,
2013-02-02 18:10:00,35.4,28.9,29.62,NW,311,2.0,2.0,77,0.00,FEW,,0.06,WeatherDisplay:10.37,2013-02-02 17:10:00,
2013-02-02 18:20:00,35.4,29.2,29.64,WNW,294,5.0,5.0,78,0.00,FEW,,0.06,WeatherDisplay:10.37,2013-02-02 17:20:00,
2013-02-02 18:30:00,35.4,29.2,29.65,WNW,292,3.0,4.0,78,0.00,FEW,,0.06,WeatherDisplay:10.37,2013-02-02 17:30:00,
2013-02-02 18:40:00,35.8,29.9,29.65,WNW,302,2.0,3.0,79,0.00,FEW,,0.06,WeatherDisplay:10.37,2013-02-02 17:40:00,
2013-02-02 19:00:00,36.0,30.4,29.67,WNW,292,0.0,2.0,80,0.00,FEW,,0.06,WeatherDisplay:10.37,2013-02-02 18:00:00,
2013-02-02 19:10:00,36.0,30.4,29.67,WNW,290,1.0,2.0,80,0.00,BKN,,0.06,WeatherDisplay:10.37,2013-02-02 18:10:00,
2013-02-02 19:20:00,35.4,29.2,29.69,West,280,0.0,3.0,78,0.00,BKN,,0.06,WeatherDisplay:10.37,2013-02-02 18:20:00,
2013-02-02 19:30:00,35.2,28.8,29.69,WNW,289,0.0,3.0,77,0.00,BKN,,0.06,WeatherDisplay:10.37,2013-02-02 18:30:00,
2013-02-02 19:40:00,34.9,28.4,29.69,WNW,288,6.0,6.0,77,0.00,BKN,,0.06,WeatherDisplay:10.37,2013-02-02 18:40:00,
2013-02-02 19:51:00,34.9,28.4,29.69,NW,305,1.0,2.0,77,0.00,BKN,,0.06,WeatherDisplay:10.37,2013-02-02 18:51:00,
2013-02-02 20:00:00,34.7,28.2,29.70,ESE,102,0.0,0.0,77,0.00,BKN,,0.06,WeatherDisplay:10.37,2013-02-02 19:00:00,
2013-02-02 20:11:00,34.5,27.7,29.70,NNW,328,0.0,2.0,76,0.00,BKN,,0.06,WeatherDisplay:10.37,2013-02-02 19:11:00,
2013-02-02 20:20:00,34.5,27.7,29.70,NW,326,2.0,2.0,76,0.00,BKN,,0.06,WeatherDisplay:10.37,2013-02-02 19:20:00,
2013-02-02 20:30:00,34.2,27.4,29.71,West,281,0.0,2.0,76,0.00,BKN,,0.06,WeatherDisplay:10.37,2013-02-02 19:30:00,
2013-02-02 20:41:00,33.4,25.7,29.72,WNW,292,1.0,2.0,73,0.00,BKN,,0.06,WeatherDisplay:10.37,2013-02-02 19:41:00,
2013-02-02 21:00:00,32.7,24.3,29.72,West,270,0.0,0.0,71,0.00,BKN,,0.06,WeatherDisplay:10.37,2013-02-02 20:00:00,
2013-02-02 21:11:00,32.5,23.8,29.72,West,270,0.0,1.0,70,0.00,SCT,,0.06,WeatherDisplay:10.37,2013-02-02 20:11:00,
2013-02-02 21:21:00,32.2,23.1,29.72,West,273,0.0,0.0,69,0.00,FEW,,0.06,WeatherDisplay:10.37,2013-02-02 20:21:00,
2013-02-02 21:31:00,31.8,22.8,29.72,WNW,303,0.0,0.0,69,0.00,FEW,,0.06,WeatherDisplay:10.37,2013-02-02 20:31:00,
2013-02-02 21:41:00,31.6,23.0,29.73,SW,221,0.0,0.0,70,0.00,FEW,,0.06,WeatherDisplay:10.37,2013-02-02 20:41:00,
2013-02-02 22:00:00,31.1,22.5,29.73,WNW,292,0.0,1.0,70,0.00,FEW,,0.06,WeatherDisplay:10.37,2013-02-02 21:00:00,
2013-02-02 22:11:00,30.7,22.4,29.74,WNW,292,0.0,1.0,71,0.00,FEW,,0.06,WeatherDisplay:10.37,2013-02-02 21:11:00,
2013-02-02 22:20:00,30.7,22.8,29.74,NW,313,0.0,2.0,72,0.00,BKN,,0.06,WeatherDisplay:10.37,2013-02-02 21:20:00,
2013-02-02 22:31:00,30.6,22.6,29.75,WNW,292,0.0,0.0,72,0.00,BKN,,0.06,WeatherDisplay:10.37,2013-02-02 21:31:00,
2013-02-02 22:40:00,30.2,22.3,29.75,West,270,0.0,0.0,72,0.00,BKN,,0.06,WeatherDisplay:10.37,2013-02-02 21:40:00,
2013-02-02 22:50:00,29.8,22.2,29.76,West,270,0.0,0.0,73,0.00,SCT,,0.06,WeatherDisplay:10.37,2013-02-02 21:50:00,
2013-02-02 23:00:00,29.5,22.2,29.76,West,278,1.0,1.0,74,0.00,SCT,,0.06,WeatherDisplay:10.37,2013-02-02 22:00:00,
2013-02-02 23:10:00,29.5,22.2,29.76,WNW,292,0.0,0.0,74,0.00,SCT,,0.06,WeatherDisplay:10.37,2013-02-02 22:10:00,
2013-02-02 23:20:00,29.5,21.9,29.77,East,101,0.0,0.0,73,0.00,SCT,,0.06,WeatherDisplay:10.37,2013-02-02 22:20:00,
2013-02-02 23:30:00,29.5,21.6,29.77,WNW,292,0.0,0.0,72,0.00,SCT,,0.06,WeatherDisplay:10.37,2013-02-02 22:30:00,
2013-02-02 23:40:00,29.5,21.2,29.77,WNW,292,0.0,0.0,71,0.00,SCT,,0.06,WeatherDisplay:10.37,2013-02-02 22:40:00,
2013-02-02 23:51:00,29.3,21.1,29.77,NW,306,0.0,2.0,71,0.00,FEW,,0.06,WeatherDisplay:10.37,2013-02-02 22:51:00,